Time;durP1;ratioP1;P1;durP2;ratioP2;P2;SDS_P1;SDS_P2;PMS_P1;PMS_P2;Temp;Humidity;BMP_temperature;BMP_pressure;BME280_temperature;BME280_humidity;BME280_pressure;Samples;Min_cycle;Max_cycle;Signal;HPM_P1;HPM_P2
2023/07/01 00:02:24;;;;;;;4.88;2.30;;;19.60;99.90;;;;;;5069506;28;20228;-76
2023/07/01 00:04:52;;;;;;;4.55;2.85;;;19.60;99.90;;;;;;5069927;28;20394;-76
2023/07/01 00:07:19;;;;;;;5.45;2.33;;;19.60;99.90;;;;;;5045078;28;20261;-76
2023/07/01 00:09:46;;;;;;;5.80;2.25;;;19.50;99.90;;;;;;5051606;28;20231;-76
2023/07/01 00:12:15;;;;;;;2.47;2.10;;;19.60;99.90;;;;;;5051434;28;20294;-75
2023/07/01 00:14:42;;;;;;;7.43;2.30;;;19.50;99.90;;;;;;5051981;28;20992;-75
2023/07/01 00:17:11;;;;;;;6.63;2.20;;;19.50;99.90;;;;;;5070328;28;20212;-75
2023/07/01 00:19:38;;;;;;;5.80;2.65;;;19.50;99.90;;;;;;5051714;28;20212;-77
2023/07/01 00:22:06;;;;;;;6.72;2.30;;;19.50;99.90;;;;;;5052192;28;20201;-75
2023/07/01 00:24:34;;;;;;;8.43;2.55;;;19.50;99.90;;;;;;5051776;28;20296;-76
2023/07/01 00:27:00;;;;;;;4.00;2.00;;;19.50;99.90;;;;;;5071090;28;20204;-75
2023/07/01 00:29:27;;;;;;;3.55;2.17;;;19.70;99.90;;;;;;5052124;28;20208;-74
2023/07/01 00:31:54;;;;;;;7.10;2.70;;;19.60;99.90;;;;;;5052163;28;20212;-75
2023/07/01 00:34:24;;;;;;;5.80;2.28;;;19.70;99.90;;;;;;5061364;28;20204;-75
2023/07/01 00:36:51;;;;;;;8.35;2.40;;;19.60;99.90;;;;;;5069803;28;20212;-75
2023/07/01 00:39:18;;;;;;;4.07;2.10;;;19.60;99.90;;;;;;5052138;28;20214;-75
2023/07/01 00:41:53;;;;;;;4.78;2.20;;;19.60;99.90;;;;;;5054089;28;20205;-76
2023/07/01 00:44:21;;;;;;;5.90;2.53;;;19.70;99.90;;;;;;5044323;28;20289;-75
2023/07/01 00:46:48;;;;;;;5.35;2.05;;;19.60;99.90;;;;;;5051029;28;20704;-76
2023/07/01 00:49:15;;;;;;;4.63;2.35;;;19.60;99.90;;;;;;5053140;28;20236;-76
2023/07/01 00:51:42;;;;;;;6.18;2.33;;;19.70;99.90;;;;;;5051518;28;20204;-75
2023/07/01 00:54:12;;;;;;;4.28;1.90;;;19.60;99.90;;;;;;5069343;28;20212;-77
2023/07/01 00:56:40;;;;;;;6.63;2.10;;;19.60;99.90;;;;;;5051082;28;20263;-76
2023/07/01 00:59:10;;;;;;;6.00;2.47;;;19.60;99.90;;;;;;5050267;28;20580;-77
2023/07/01 01:01:40;;;;;;;4.50;2.10;;;19.60;99.90;;;;;;5051409;28;20221;-75
2023/07/01 01:04:17;;;;;;;5.72;2.30;;;19.60;99.90;;;;;;5050859;28;20240;-77
2023/07/01 01:06:52;;;;;;;5.18;2.58;;;19.50;99.90;;;;;;5068846;28;20559;-77
2023/07/01 01:09:40;;;;;;;5.20;2.33;;;19.50;99.90;;;;;;5061367;28;20319;-78
2023/07/01 01:12:12;;;;;;;3.25;2.25;;;19.40;99.90;;;;;;5052754;28;20247;-77
2023/07/01 01:14:42;;;;;;;4.20;1.98;;;19.40;99.90;;;;;;5050651;28;20212;-76
2023/07/01 01:17:13;;;;;;;5.90;2.13;;;19.30;99.90;;;;;;5051489;28;20227;-77
2023/07/01 01:19:44;;;;;;;4.80;2.20;;;19.30;99.90;;;;;;5069307;28;20196;-75
2023/07/01 01:22:16;;;;;;;3.85;2.28;;;19.40;99.90;;;;;;5050759;28;20200;-75
2023/07/01 01:24:57;;;;;;;5.50;1.88;;;19.20;99.90;;;;;;5068193;28;20653;-75
2023/07/01 01:27:34;;;;;;;3.80;1.90;;;19.10;99.90;;;;;;5061343;28;20247;-77
2023/07/01 01:30:01;;;;;;;5.10;2.15;;;19.20;99.90;;;;;;5068606;28;20216;-78
2023/07/01 01:32:28;;;;;;;4.05;2.30;;;19.20;99.90;;;;;;5068622;28;20208;-75
2023/07/01 01:34:55;;;;;;;7.10;2.40;;;19.00;99.90;;;;;;5050398;28;20676;-75
2023/07/01 01:37:30;;;;;;;4.85;2.25;;;19.00;99.90;;;;;;5050058;28;20302;-77
2023/07/01 01:40:09;;;;;;;4.90;2.25;;;19.10;99.90;;;;;;5068204;28;20656;-77
2023/07/01 01:42:40;;;;;;;5.60;2.60;;;19.00;99.90;;;;;;5050480;28;20433;-76
2023/07/01 01:45:07;;;;;;;4.38;2.22;;;19.00;99.90;;;;;;5050122;28;20216;-77
2023/07/01 01:47:36;;;;;;;4.70;2.60;;;18.90;99.90;;;;;;5049734;28;20219;-76
2023/07/01 01:50:09;;;;;;;5.07;2.40;;;18.80;99.90;;;;;;5050436;28;20262;-78
2023/07/01 01:52:40;;;;;;;5.18;2.70;;;18.80;99.90;;;;;;5068181;28;20303;-76
2023/07/01 01:55:10;;;;;;;5.85;2.25;;;18.90;99.90;;;;;;5050052;28;20232;-76
2023/07/01 01:57:37;;;;;;;3.53;2.10;;;18.90;99.90;;;;;;5050265;28;20644;-76
2023/07/01 02:00:08;;;;;;;4.35;2.53;;;18.90;99.90;;;;;;5067589;28;20232;-78
2023/07/01 02:02:36;;;;;;;6.53;2.47;;;18.90;99.90;;;;;;5050477;28;20284;-77
2023/07/01 02:05:04;;;;;;;3.08;2.20;;;18.90;99.90;;;;;;5067758;28;20303;-75
2023/07/01 02:07:31;;;;;;;3.60;2.42;;;18.90;99.90;;;;;;5049792;28;20200;-76
2023/07/01 02:09:58;;;;;;;4.78;2.47;;;18.80;99.90;;;;;;5049811;28;20262;-79
2023/07/01 02:12:29;;;;;;;3.80;2.25;;;18.80;99.90;;;;;;5049467;28;20244;-77
2023/07/01 02:14:56;;;;;;;4.50;2.67;;;18.80;99.90;;;;;;5049716;28;20566;-76
2023/07/01 02:17:22;;;;;;;4.35;2.25;;;18.80;99.90;;;;;;5050071;28;20208;-77
2023/07/01 02:19:49;;;;;;;8.10;2.75;;;18.80;99.90;;;;;;5049826;28;20323;-75
2023/07/01 02:22:19;;;;;;;6.07;2.47;;;18.80;99.90;;;;;;5060290;28;20333;-76
2023/07/01 02:24:45;;;;;;;6.55;2.40;;;18.70;99.90;;;;;;5049124;28;20205;-80
2023/07/01 02:27:12;;;;;;;4.40;2.28;;;18.70;99.90;;;;;;5067556;28;20204;-78
2023/07/01 02:29:39;;;;;;;3.55;2.40;;;18.70;99.90;;;;;;5068016;28;20208;-75
2023/07/01 02:32:07;;;;;;;4.10;2.47;;;18.70;99.90;;;;;;5050000;28;20239;-75
2023/07/01 02:34:34;;;;;;;3.15;2.22;;;18.60;99.90;;;;;;5066234;28;20724;-77
2023/07/01 02:37:01;;;;;;;3.78;2.03;;;18.60;99.90;;;;;;5067216;28;20231;-76
2023/07/01 02:39:27;;;;;;;5.57;2.80;;;18.60;99.90;;;;;;5049215;28;20580;-76
2023/07/01 02:41:54;;;;;;;4.07;2.45;;;18.50;99.90;;;;;;5050842;28;20648;-77
2023/07/01 02:44:21;;;;;;;4.72;2.78;;;18.50;99.90;;;;;;5073822;28;20504;-76
2023/07/01 02:46:50;;;;;;;5.22;2.30;;;18.50;99.90;;;;;;5074099;28;20232;-77
2023/07/01 02:49:17;;;;;;;3.20;2.40;;;18.50;99.90;;;;;;5066141;28;20227;-77
2023/07/01 02:51:44;;;;;;;6.00;2.53;;;18.40;99.90;;;;;;5055970;28;20621;-77
2023/07/01 02:54:12;;;;;;;4.30;2.63;;;18.40;99.90;;;;;;5074131;28;20342;-77
2023/07/01 02:56:39;;;;;;;5.07;2.60;;;18.40;99.90;;;;;;5055916;28;20569;-76
2023/07/01 02:59:06;;;;;;;5.80;3.00;;;18.40;99.90;;;;;;5055902;28;20612;-76
2023/07/01 03:01:35;;;;;;;4.10;2.50;;;18.30;99.90;;;;;;5074049;28;20220;-76
2023/07/01 03:04:04;;;;;;;4.25;2.80;;;18.20;99.90;;;;;;5055885;28;20262;-76
2023/07/01 03:06:45;;;;;;;4.32;2.58;;;18.20;99.90;;;;;;5073863;28;20298;-78
2023/07/01 03:09:15;;;;;;;6.15;2.63;;;18.10;99.90;;;;;;5056391;28;20665;-76
2023/07/01 03:11:42;;;;;;;5.40;2.65;;;18.00;99.90;;;;;;5072816;28;20347;-78
2023/07/01 03:14:09;;;;;;;5.50;2.55;;;18.00;99.90;;;;;;5056097;28;20242;-78
2023/07/01 03:16:36;;;;;;;3.08;2.55;;;17.90;99.90;;;;;;5073770;28;20262;-78
2023/07/01 03:19:05;;;;;;;3.88;2.58;;;18.00;99.90;;;;;;5055750;28;20228;-78
2023/07/01 03:21:33;;;;;;;4.63;2.25;;;18.00;99.90;;;;;;5055700;28;20729;-75
2023/07/01 03:24:01;;;;;;;3.72;2.38;;;18.00;99.90;;;;;;5055959;28;20265;-77
2023/07/01 03:26:30;;;;;;;4.85;2.60;;;18.10;99.90;;;;;;5056369;28;20205;-78
2023/07/01 03:28:56;;;;;;;5.60;2.20;;;18.20;99.90;;;;;;5073460;28;20208;-75
2023/07/01 03:31:24;;;;;;;4.25;2.42;;;18.20;99.90;;;;;;5051553;28;20689;-77
2023/07/01 03:33:51;;;;;;;4.47;2.60;;;18.20;99.90;;;;;;5049189;28;20266;-76
2023/07/01 03:36:18;;;;;;;4.55;2.47;;;18.30;99.90;;;;;;5073896;28;20228;-77
2023/07/01 03:38:46;;;;;;;4.10;3.10;;;18.20;99.90;;;;;;5073969;28;20660;-76
2023/07/01 03:41:13;;;;;;;3.13;2.35;;;18.30;99.90;;;;;;5055717;28;20203;-78
2023/07/01 03:43:42;;;;;;;4.82;2.20;;;18.30;99.90;;;;;;5055499;28;20250;-76
2023/07/01 03:46:09;;;;;;;3.33;2.40;;;18.30;99.90;;;;;;5055771;28;20216;-77
2023/07/01 03:48:36;;;;;;;3.15;2.40;;;18.30;99.90;;;;;;5056028;28;20240;-77
2023/07/01 03:51:03;;;;;;;4.53;2.38;;;18.30;99.90;;;;;;5058846;28;20283;-79
2023/07/01 03:53:32;;;;;;;5.20;2.47;;;18.30;99.90;;;;;;5061352;28;20235;-76
2023/07/01 03:56:02;;;;;;;2.78;2.30;;;18.30;99.90;;;;;;5057090;28;20240;-76
2023/07/01 03:58:29;;;;;;;3.90;2.17;;;18.30;99.90;;;;;;5054261;28;20208;-77
2023/07/01 04:00:56;;;;;;;5.80;2.70;;;18.30;99.90;;;;;;5052949;28;20228;-77
2023/07/01 04:03:26;;;;;;;2.78;2.33;;;18.40;99.90;;;;;;5051850;28;20288;-76
2023/07/01 04:05:54;;;;;;;8.50;2.88;;;18.30;99.90;;;;;;5056141;28;20269;-77
2023/07/01 04:08:23;;;;;;;4.50;2.45;;;18.30;99.90;;;;;;5052399;28;20227;-77
2023/07/01 04:10:49;;;;;;;4.38;2.35;;;18.30;99.90;;;;;;5051498;28;20221;-76
2023/07/01 04:13:16;;;;;;;4.03;2.50;;;18.30;99.90;;;;;;5044197;28;20213;-76
2023/07/01 04:15:43;;;;;;;5.10;2.28;;;18.30;99.90;;;;;;5051866;28;20229;-76
2023/07/01 04:18:10;;;;;;;3.10;2.20;;;18.40;99.90;;;;;;5069777;28;20291;-77
2023/07/01 04:20:37;;;;;;;2.92;2.53;;;18.40;99.90;;;;;;5051566;28;20204;-78
2023/07/01 04:23:04;;;;;;;3.58;2.83;;;18.50;99.90;;;;;;5051968;28;20217;-76
2023/07/01 04:25:31;;;;;;;5.47;2.40;;;18.50;99.90;;;;;;5051892;28;20205;-77
2023/07/01 04:27:59;;;;;;;6.90;3.08;;;18.30;99.90;;;;;;5051930;28;20207;-78
2023/07/01 04:30:26;;;;;;;4.75;2.72;;;18.40;99.90;;;;;;5068924;28;20300;-80
2023/07/01 04:32:52;;;;;;;4.68;2.55;;;18.30;99.90;;;;;;5051208;28;20205;-79
2023/07/01 04:35:19;;;;;;;4.60;2.63;;;18.30;99.90;;;;;;5044403;28;20637;-78
2023/07/01 04:37:46;;;;;;;5.70;2.65;;;18.30;99.90;;;;;;5069424;28;20228;-77
2023/07/01 04:40:13;;;;;;;3.88;2.60;;;18.30;99.90;;;;;;5068765;28;20208;-76
2023/07/01 04:42:50;;;;;;;4.03;3.22;;;18.30;99.90;;;;;;5051558;28;20218;-75
2023/07/01 04:45:18;;;;;;;5.07;2.53;;;18.40;99.90;;;;;;5042815;28;20220;-76
2023/07/01 04:47:46;;;;;;;4.43;2.90;;;18.30;99.90;;;;;;5051813;28;20211;-78
2023/07/01 04:50:13;;;;;;;3.65;2.72;;;18.40;99.90;;;;;;5051435;28;20227;-76
2023/07/01 04:52:43;;;;;;;4.68;2.72;;;18.30;99.90;;;;;;5051445;28;20211;-75
2023/07/01 04:55:13;;;;;;;4.82;3.00;;;18.30;99.90;;;;;;5050984;28;20204;-75
2023/07/01 04:57:43;;;;;;;4.68;3.03;;;18.20;99.90;;;;;;5068595;28;20236;-77
2023/07/01 05:00:14;;;;;;;3.22;2.50;;;18.10;99.90;;;;;;5051208;28;20228;-77
2023/07/01 05:02:41;;;;;;;5.43;2.65;;;18.20;99.90;;;;;;5068845;28;20205;-76
2023/07/01 05:05:08;;;;;;;4.43;2.75;;;18.20;99.90;;;;;;5068783;28;20299;-76
2023/07/01 05:07:36;;;;;;;4.20;3.10;;;18.20;99.90;;;;;;5067642;28;20721;-75
2023/07/01 05:10:03;;;;;;;4.18;2.55;;;18.30;99.90;;;;;;5068538;28;20680;-76
2023/07/01 05:12:29;;;;;;;3.72;2.88;;;18.20;99.90;;;;;;5068294;28;20751;-74
2023/07/01 05:14:56;;;;;;;4.72;2.55;;;18.20;99.90;;;;;;5050885;28;20239;-75
2023/07/01 05:17:24;;;;;;;3.35;2.67;;;18.20;99.90;;;;;;5050958;28;20311;-78
2023/07/01 05:19:51;;;;;;;5.05;2.90;;;18.40;99.90;;;;;;5050768;28;20209;-75
2023/07/01 05:22:18;;;;;;;6.03;2.60;;;18.30;99.90;;;;;;5068063;28;20219;-77
2023/07/01 05:24:44;;;;;;;3.67;2.40;;;18.30;99.90;;;;;;5050836;28;20275;-76
2023/07/01 05:27:11;;;;;;;3.28;2.45;;;18.30;99.90;;;;;;5068617;28;20220;-76
2023/07/01 05:29:38;;;;;;;3.95;2.75;;;18.30;99.90;;;;;;5050853;28;20216;-77
2023/07/01 05:32:07;;;;;;;3.58;2.35;;;18.30;99.90;;;;;;5047444;28;20211;-76
2023/07/01 05:34:34;;;;;;;4.75;2.30;;;18.30;99.90;;;;;;5046250;28;20205;-77
2023/07/01 05:37:00;;;;;;;3.22;2.45;;;18.30;99.90;;;;;;5068531;28;20232;-75
2023/07/01 05:39:30;;;;;;;3.42;2.60;;;18.30;99.90;;;;;;5068355;28;20231;-76
2023/07/01 05:41:56;;;;;;;3.67;2.70;;;18.30;99.90;;;;;;5050742;28;20213;-75
2023/07/01 05:44:25;;;;;;;4.05;2.70;;;18.30;99.90;;;;;;5050516;28;20276;-74
2023/07/01 05:46:53;;;;;;;4.00;2.47;;;18.20;99.90;;;;;;5050327;28;20688;-76
2023/07/01 05:49:20;;;;;;;4.22;3.03;;;18.20;99.90;;;;;;5068297;28;20204;-76
2023/07/01 05:51:46;;;;;;;5.50;3.08;;;18.10;99.90;;;;;;5049739;28;20497;-76
2023/07/01 05:54:16;;;;;;;4.18;2.92;;;18.10;99.90;;;;;;5051798;28;20323;-77
2023/07/01 05:56:43;;;;;;;4.35;3.00;;;18.10;99.90;;;;;;5050469;28;20229;-75
2023/07/01 05:59:10;;;;;;;3.20;2.78;;;18.10;99.90;;;;;;5050501;28;20218;-79
2023/07/01 06:01:37;;;;;;;3.42;2.85;;;18.10;99.90;;;;;;5067673;28;20304;-76
2023/07/01 06:04:04;;;;;;;6.00;3.20;;;18.10;99.90;;;;;;5049338;28;20204;-76
2023/07/01 06:06:31;;;;;;;5.75;2.97;;;18.10;99.90;;;;;;5050300;28;20758;-75
2023/07/01 06:08:59;;;;;;;3.92;2.95;;;18.10;99.90;;;;;;5049929;28;20574;-77
2023/07/01 06:11:27;;;;;;;5.00;3.22;;;18.00;99.90;;;;;;5046227;28;20294;-76
2023/07/01 06:13:53;;;;;;;3.58;2.55;;;18.10;99.90;;;;;;5046812;28;20208;-76
2023/07/01 06:16:20;;;;;;;3.40;2.80;;;18.10;99.90;;;;;;5067502;28;20263;-75
2023/07/01 06:18:47;;;;;;;4.68;2.97;;;18.10;99.90;;;;;;5067363;28;20212;-75
2023/07/01 06:21:14;;;;;;;5.88;2.92;;;18.10;99.90;;;;;;5050407;28;20212;-75
2023/07/01 06:23:42;;;;;;;4.20;3.08;;;18.20;99.90;;;;;;5049488;28;20204;-77
2023/07/01 06:26:08;;;;;;;3.03;2.72;;;18.20;99.90;;;;;;5067704;28;20262;-76
2023/07/01 06:28:35;;;;;;;4.93;2.70;;;18.30;99.90;;;;;;5046343;28;20205;-77
2023/07/01 06:31:02;;;;;;;3.38;2.92;;;18.30;99.90;;;;;;5047884;28;20227;-75
2023/07/01 06:33:29;;;;;;;4.15;2.60;;;18.30;99.90;;;;;;5052094;28;20318;-76
2023/07/01 06:35:56;;;;;;;3.95;3.15;;;18.30;99.90;;;;;;5062098;28;20200;-75
2023/07/01 06:38:23;;;;;;;4.28;2.90;;;18.40;99.90;;;;;;5062320;28;20228;-76
2023/07/01 06:40:51;;;;;;;3.88;3.08;;;18.50;99.90;;;;;;5055427;28;20282;-76
2023/07/01 06:43:17;;;;;;;3.90;2.90;;;18.30;99.90;;;;;;5050433;28;20564;-75
2023/07/01 06:45:44;;;;;;;3.85;3.10;;;18.30;99.90;;;;;;5068637;28;20231;-77
2023/07/01 06:48:11;;;;;;;2.75;2.53;;;18.60;99.90;;;;;;5067589;28;20743;-75
2023/07/01 06:50:38;;;;;;;5.00;2.95;;;18.40;99.90;;;;;;5046500;28;20241;-76
2023/07/01 06:53:06;;;;;;;3.42;2.78;;;18.50;99.90;;;;;;5048008;28;20208;-75
2023/07/01 06:55:33;;;;;;;4.28;3.03;;;18.60;99.90;;;;;;5067482;28;20529;-76
2023/07/01 06:58:03;;;;;;;3.88;3.00;;;18.50;99.90;;;;;;5049306;28;20231;-76
2023/07/01 07:00:30;;;;;;;3.88;3.10;;;18.50;99.90;;;;;;5049104;28;20224;-76
2023/07/01 07:02:57;;;;;;;3.20;2.90;;;18.50;99.90;;;;;;5049029;28;20209;-76
2023/07/01 07:05:25;;;;;;;4.28;2.90;;;18.50;99.90;;;;;;5048429;28;20601;-76
2023/07/01 07:07:52;;;;;;;4.35;2.90;;;18.60;99.90;;;;;;5048926;28;20298;-75
2023/07/01 07:10:19;;;;;;;3.28;2.92;;;18.60;99.90;;;;;;5049286;28;20661;-76
2023/07/01 07:12:49;;;;;;;4.00;3.03;;;18.60;99.90;;;;;;5048816;28;20232;-75
2023/07/01 07:15:18;;;;;;;3.50;2.63;;;18.70;99.90;;;;;;5049514;28;20220;-76
2023/07/01 07:17:45;;;;;;;3.30;2.85;;;18.60;99.90;;;;;;5056794;28;20285;-75
2023/07/01 07:20:12;;;;;;;3.10;2.80;;;18.60;99.90;;;;;;5049113;28;20295;-76
2023/07/01 07:22:39;;;;;;;4.10;3.35;;;18.50;99.90;;;;;;5067122;28;20374;-76
2023/07/01 07:25:07;;;;;;;3.05;2.72;;;18.60;99.90;;;;;;5049154;28;20657;-74
2023/07/01 07:27:34;;;;;;;3.05;2.50;;;18.60;99.90;;;;;;5049096;28;20307;-75
2023/07/01 07:30:02;;;;;;;6.43;3.20;;;18.60;99.90;;;;;;5070559;28;20236;-76
2023/07/01 07:32:31;;;;;;;3.03;2.72;;;18.60;99.90;;;;;;5070044;28;20573;-75
2023/07/01 07:34:58;;;;;;;4.15;2.88;;;18.60;99.90;;;;;;5052672;28;20549;-75
2023/07/01 07:37:25;;;;;;;3.63;2.80;;;18.70;99.90;;;;;;5052206;28;20232;-75
2023/07/01 07:39:53;;;;;;;5.03;3.17;;;18.70;99.90;;;;;;5052553;28;20494;-76
2023/07/01 07:42:20;;;;;;;4.65;2.88;;;18.70;99.90;;;;;;5070869;28;20209;-80
2023/07/01 07:44:47;;;;;;;2.90;2.60;;;18.70;99.90;;;;;;5052497;28;20223;-78
2023/07/01 07:47:14;;;;;;;5.15;3.00;;;18.70;99.90;;;;;;5070156;28;20565;-76
2023/07/01 07:49:41;;;;;;;3.67;2.50;;;18.50;99.90;;;;;;5052963;28;20222;-75
2023/07/01 07:52:07;;;;;;;4.03;2.92;;;18.60;99.90;;;;;;5052757;28;20200;-77
2023/07/01 07:54:34;;;;;;;4.22;2.97;;;18.50;99.90;;;;;;5052460;28;20197;-77
2023/07/01 07:57:01;;;;;;;4.25;2.83;;;18.50;99.90;;;;;;5052147;28;20235;-77
2023/07/01 07:59:29;;;;;;;5.22;3.30;;;18.50;99.90;;;;;;5052656;28;20216;-80
2023/07/01 08:02:00;;;;;;;3.95;3.30;;;18.40;99.90;;;;;;5070643;28;20217;-76
2023/07/01 08:04:27;;;;;;;3.58;3.22;;;18.30;99.90;;;;;;5052663;28;20296;-76
2023/07/01 08:06:54;;;;;;;4.10;3.35;;;18.40;99.90;;;;;;5069381;28;20628;-78
2023/07/01 08:09:21;;;;;;;4.57;3.42;;;18.30;99.90;;;;;;5051663;28;20208;-75
2023/07/01 08:11:48;;;;;;;4.00;3.38;;;18.40;99.90;;;;;;5070035;28;20227;-76
2023/07/01 08:14:19;;;;;;;5.57;3.90;;;18.40;99.90;;;;;;5044583;28;20217;-76
2023/07/01 08:16:46;;;;;;;4.28;3.60;;;18.50;99.90;;;;;;5069710;28;20224;-78
2023/07/01 08:19:13;;;;;;;5.15;3.65;;;18.50;99.90;;;;;;5051298;28;20604;-76
2023/07/01 08:21:40;;;;;;;6.10;4.22;;;18.60;99.90;;;;;;5070200;28;20203;-75
2023/07/01 08:24:10;;;;;;;4.85;3.92;;;18.70;99.90;;;;;;5051836;28;20215;-79
2023/07/01 08:26:39;;;;;;;4.35;3.50;;;18.70;99.90;;;;;;5051904;28;20220;-78
2023/07/01 08:29:08;;;;;;;4.65;3.58;;;18.80;99.90;;;;;;5051660;28;20658;-75
2023/07/01 08:31:35;;;;;;;4.55;3.45;;;18.70;99.90;;;;;;5051244;28;20225;-76
2023/07/01 08:34:02;;;;;;;3.47;3.08;;;18.80;99.90;;;;;;5060058;28;20213;-77
2023/07/01 08:36:29;;;;;;;5.47;3.25;;;18.80;99.90;;;;;;5060000;28;20220;-76
2023/07/01 08:38:56;;;;;;;3.38;2.88;;;18.90;99.90;;;;;;5059584;28;20239;-77
2023/07/01 08:41:25;;;;;;;3.33;2.88;;;18.90;99.90;;;;;;5068641;28;20332;-77
2023/07/01 08:43:53;;;;;;;4.20;2.90;;;19.00;99.90;;;;;;5051715;28;20204;-76
2023/07/01 08:46:20;;;;;;;3.75;3.00;;;19.10;99.90;;;;;;5051109;28;20622;-77
2023/07/01 08:48:48;;;;;;;4.22;2.80;;;19.00;99.90;;;;;;5068825;28;20555;-77
2023/07/01 08:51:26;;;;;;;3.83;2.45;;;19.10;99.90;;;;;;5043480;28;20244;-78
2023/07/01 08:53:53;;;;;;;2.30;2.10;;;19.10;99.90;;;;;;5050842;28;20675;-77
2023/07/01 08:56:21;;;;;;;3.65;2.60;;;19.10;99.90;;;;;;5051118;28;20629;-78
2023/07/01 08:58:49;;;;;;;3.03;2.38;;;19.10;99.90;;;;;;5069111;28;20232;-77
2023/07/01 09:01:18;;;;;;;4.10;2.35;;;19.20;99.90;;;;;;5026973;28;20231;-77
2023/07/01 09:03:49;;;;;;;2.50;2.30;;;19.00;99.90;;;;;;5058922;28;20211;-80
2023/07/01 09:06:20;;;;;;;2.83;2.30;;;19.10;99.90;;;;;;5061034;28;20243;-77
2023/07/01 09:08:47;;;;;;;4.15;2.17;;;19.20;99.90;;;;;;5051178;28;20533;-78
2023/07/01 09:11:15;;;;;;;2.90;2.58;;;19.30;99.90;;;;;;5050517;28;20312;-77
2023/07/01 09:13:43;;;;;;;3.47;2.88;;;19.50;99.90;;;;;;5050550;28;20586;-78
2023/07/01 09:16:10;;;;;;;2.78;1.70;;;19.50;99.90;;;;;;5051092;28;20220;-76
2023/07/01 09:18:40;;;;;;;2.08;1.70;;;19.60;99.90;;;;;;5050632;28;20628;-77
2023/07/01 09:21:26;;;;;;;2.00;1.80;;;19.70;99.90;;;;;;5068512;28;20207;-77
2023/07/01 09:23:55;;;;;;;1.90;1.65;;;19.80;99.90;;;;;;5051108;28;20676;-81
2023/07/01 09:26:22;;;;;;;1.90;1.75;;;19.80;99.90;;;;;;5051075;28;20212;-77
2023/07/01 09:28:49;;;;;;;2.13;1.45;;;19.70;99.90;;;;;;5051008;28;20224;-78
2023/07/01 09:31:17;;;;;;;1.55;1.38;;;19.70;99.90;;;;;;5049991;28;20208;-78
2023/07/01 09:33:58;;;;;;;2.03;1.60;;;19.60;99.90;;;;;;5060670;28;20640;-77
2023/07/01 09:36:26;;;;;;;1.30;1.20;;;19.50;99.90;;;;;;5060960;28;20291;-78
2023/07/01 09:38:54;;;;;;;2.03;1.63;;;19.50;99.90;;;;;;5050598;28;20710;-76
2023/07/01 09:41:24;;;;;;;1.30;1.20;;;19.50;99.90;;;;;;5061364;28;20208;-77
2023/07/01 09:43:53;;;;;;;1.40;1.30;;;19.50;99.90;;;;;;5067295;28;20211;-76
2023/07/01 09:46:20;;;;;;;1.52;1.27;;;19.30;99.90;;;;;;5064812;28;20216;-77
2023/07/01 09:48:55;;;;;;;2.13;1.92;;;19.40;99.90;;;;;;5081285;28;20205;-76
2023/07/01 09:51:24;;;;;;;1.88;1.67;;;19.50;99.90;;;;;;5051528;28;20524;-75
2023/07/01 09:53:51;;;;;;;1.77;1.60;;;19.50;99.90;;;;;;5068069;28;20504;-76
2023/07/01 09:56:19;;;;;;;2.15;1.95;;;19.60;99.90;;;;;;5050492;28;20231;-76
2023/07/01 09:58:47;;;;;;;2.30;1.63;;;19.70;99.90;;;;;;5050595;28;20228;-76
2023/07/01 10:01:17;;;;;;;1.88;1.67;;;19.70;99.90;;;;;;5050334;28;20225;-76
2023/07/01 10:03:45;;;;;;;2.63;2.08;;;20.00;99.90;;;;;;5068003;28;20231;-75
2023/07/01 10:06:12;;;;;;;2.50;1.88;;;20.10;99.90;;;;;;5050081;28;20665;-77
2023/07/01 10:08:42;;;;;;;3.33;2.10;;;20.10;99.90;;;;;;5050194;28;20719;-76
2023/07/01 10:11:21;;;;;;;2.53;1.80;;;20.10;99.90;;;;;;5067849;28;20235;-77
2023/07/01 10:13:51;;;;;;;3.35;2.20;;;20.10;99.90;;;;;;5068177;28;20660;-76
2023/07/01 10:16:19;;;;;;;2.58;2.20;;;20.20;99.90;;;;;;5041957;28;20221;-76
2023/07/01 10:18:47;;;;;;;2.40;2.13;;;20.30;99.90;;;;;;5058790;28;20663;-76
2023/07/01 10:21:23;;;;;;;2.92;2.40;;;20.40;99.90;;;;;;5067713;28;20664;-76
2023/07/01 10:23:51;;;;;;;2.42;2.20;;;20.60;99.90;;;;;;5049627;28;20216;-77
2023/07/01 10:26:35;;;;;;;2.95;2.33;;;20.50;99.90;;;;;;5060265;28;20209;-77
2023/07/01 10:29:53;;;;;;;3.35;2.42;;;20.50;99.90;;;;;;5049584;28;20239;-76
2023/07/01 10:32:26;;;;;;;3.25;2.60;;;20.50;99.90;;;;;;4975496;28;20219;-77
2023/07/01 10:34:53;;;;;;;3.42;2.30;;;20.40;99.90;;;;;;4985762;28;20211;-78
2023/07/01 10:37:28;;;;;;;3.95;2.70;;;20.40;99.90;;;;;;5027500;28;20295;-76
2023/07/01 10:39:56;;;;;;;4.32;2.67;;;20.40;99.90;;;;;;5049528;28;20203;-77
2023/07/01 10:42:33;;;;;;;3.72;2.97;;;20.50;99.90;;;;;;5049345;28;20296;-75
2023/07/01 10:45:12;;;;;;;3.97;3.15;;;20.40;99.90;;;;;;5067893;28;20247;-76
2023/07/01 10:47:46;;;;;;;4.97;3.30;;;20.50;99.90;;;;;;5049942;28;20663;-76
2023/07/01 10:50:14;;;;;;;3.58;2.97;;;20.50;99.90;;;;;;5049577;28;20286;-76
2023/07/01 10:52:57;;;;;;;4.35;3.42;;;20.40;99.90;;;;;;5049845;28;20492;-76
2023/07/01 10:55:36;;;;;;;3.13;2.50;;;20.40;99.90;;;;;;5067945;28;20250;-77
2023/07/01 10:58:26;;;;;;;4.63;3.20;;;20.40;99.90;;;;;;5048977;28;20220;-77
2023/07/01 11:00:57;;;;;;;4.28;3.05;;;20.40;99.90;;;;;;5049491;28;20252;-77
2023/07/01 11:03:34;;;;;;;3.97;3.08;;;20.50;99.90;;;;;;5049963;28;20239;-77
2023/07/01 11:06:06;;;;;;;3.60;3.17;;;20.60;99.90;;;;;;5071031;28;20605;-76
2023/07/01 11:08:43;;;;;;;3.53;2.97;;;20.60;99.90;;;;;;5052961;28;20284;-76
2023/07/01 11:11:10;;;;;;;4.00;3.05;;;20.70;99.90;;;;;;5068872;28;20270;-77
2023/07/01 11:13:37;;;;;;;3.42;2.88;;;20.80;99.90;;;;;;5053622;28;20235;-76
2023/07/01 11:16:10;;;;;;;5.18;3.72;;;20.90;99.90;;;;;;5070574;28;20231;-76
2023/07/01 11:18:47;;;;;;;6.47;3.58;;;21.10;99.90;;;;;;5052840;28;20278;-76
2023/07/01 11:21:19;;;;;;;4.40;3.50;;;21.10;99.90;;;;;;5070774;28;20214;-76
2023/07/01 11:23:58;;;;;;;3.97;3.42;;;21.10;99.90;;;;;;5071185;28;20208;-76
2023/07/01 11:26:35;;;;;;;5.55;4.13;;;21.60;99.90;;;;;;5045672;28;20563;-75
2023/07/01 11:29:10;;;;;;;4.63;3.30;;;21.10;99.90;;;;;;5052018;28;20290;-77
2023/07/01 11:31:37;;;;;;;5.32;3.83;;;21.50;99.90;;;;;;5052445;28;20220;-77
2023/07/01 11:34:04;;;;;;;5.40;3.40;;;21.50;99.90;;;;;;5044025;28;20292;-77
2023/07/01 11:36:45;;;;;;;4.50;3.65;;;21.40;99.90;;;;;;5060635;28;20208;-78
2023/07/01 11:39:14;;;;;;;3.88;3.45;;;21.50;99.90;;;;;;5052444;28;20707;-77
2023/07/01 11:41:43;;;;;;;4.18;3.42;;;21.60;99.90;;;;;;5053420;28;20769;-77
2023/07/01 11:44:14;;;;;;;4.00;3.20;;;21.30;99.90;;;;;;5052919;28;20687;-76
2023/07/01 11:46:43;;;;;;;5.10;4.07;;;21.10;99.90;;;;;;5052509;28;20239;-78
2023/07/01 11:49:10;;;;;;;6.85;3.65;;;21.10;99.90;;;;;;5070085;28;20204;-79
2023/07/01 11:51:42;;;;;;;5.25;3.40;;;20.80;99.90;;;;;;5070933;28;20633;-81
2023/07/01 11:54:09;;;;;;;2.22;1.85;;;20.80;99.90;;;;;;5071110;28;20197;-81
2023/07/01 11:56:40;;;;;;;3.67;2.40;;;20.70;99.90;;;;;;5071517;28;20321;-82
2023/07/01 11:59:07;;;;;;;2.60;2.10;;;20.70;99.90;;;;;;5052729;28;20232;-81
2023/07/01 12:01:38;;;;;;;4.43;2.50;;;20.60;99.90;;;;;;5070028;28;20283;-83
2023/07/01 12:04:17;;;;;;;3.38;2.55;;;20.50;99.90;;;;;;5052622;28;20223;-84
2023/07/01 12:06:45;;;;;;;4.13;2.60;;;20.50;99.90;;;;;;5053359;28;20204;-83
2023/07/01 12:09:28;;;;;;;5.38;2.92;;;20.50;99.90;;;;;;5053078;28;20695;-81
2023/07/01 12:11:55;;;;;;;4.53;2.63;;;20.40;99.90;;;;;;5052039;28;20246;-80
2023/07/01 12:14:23;;;;;;;4.07;2.40;;;20.70;99.90;;;;;;5052155;28;20224;-82
2023/07/01 12:16:52;;;;;;;3.85;2.75;;;20.70;99.90;;;;;;5052280;28;20226;-83
2023/07/01 12:19:20;;;;;;;3.28;2.72;;;20.90;99.90;;;;;;5062568;28;20240;-81
2023/07/01 12:21:49;;;;;;;5.13;3.75;;;21.10;99.90;;;;;;5071281;28;20203;-81
2023/07/01 12:24:23;;;;;;;5.65;3.53;;;21.20;99.90;;;;;;5035691;28;20209;-81
2023/07/01 12:26:53;;;;;;;5.72;3.85;;;21.40;99.90;;;;;;5069576;28;20299;-79
2023/07/01 12:29:20;;;;;;;6.03;4.10;;;;;;;;;;5052566;28;20204;-80
2023/07/01 12:31:47;;;;;;;5.32;4.05;;;21.80;99.90;;;;;;5070031;28;20228;-80
2023/07/01 12:34:15;;;;;;;5.25;3.90;;;21.90;99.90;;;;;;5062635;28;20653;-81
2023/07/01 12:36:45;;;;;;;6.20;4.13;;;21.90;99.90;;;;;;5070155;28;20716;-80
2023/07/01 12:39:14;;;;;;;6.75;4.32;;;21.60;99.90;;;;;;5070105;28;20228;-83
2023/07/01 12:41:42;;;;;;;6.95;4.68;;;21.40;99.90;;;;;;5070041;28;20201;-82
2023/07/01 12:44:09;;;;;;;7.68;4.90;;;21.30;99.90;;;;;;5070149;28;20211;-80
2023/07/01 12:46:38;;;;;;;7.00;3.92;;;21.00;99.90;;;;;;5070358;28;20216;-82
2023/07/01 12:49:06;;;;;;;6.43;3.90;;;21.00;99.90;;;;;;5069323;28;20228;-83
2023/07/01 12:51:36;;;;;;;5.63;3.80;;;21.20;99.90;;;;;;5052297;28;20291;-80
2023/07/01 12:54:04;;;;;;;5.18;3.83;;;21.30;99.90;;;;;;5051873;28;20645;-78
2023/07/01 12:56:44;;;;;;;4.35;3.00;;;21.30;99.90;;;;;;5070105;28;20296;-80
2023/07/01 12:59:11;;;;;;;3.47;2.67;;;21.20;99.90;;;;;;5051317;28;20240;-80